createdAt,value
2023-05-18T00:00:55.520Z,74.00
2023-05-18T00:03:22.685Z,74.00
2023-05-18T00:05:49.940Z,74.10
2023-05-18T00:08:16.959Z,74.20
2023-05-18T00:10:43.671Z,73.90
2023-05-18T00:13:10.389Z,73.90
2023-05-18T00:15:37.160Z,73.60
2023-05-18T00:18:04.005Z,73.80
2023-05-18T00:20:31.566Z,73.60
2023-05-18T00:22:58.330Z,73.90
2023-05-18T00:25:25.102Z,74.10
2023-05-18T00:27:52.048Z,74.40
2023-05-18T00:30:19.083Z,74.30
2023-05-18T00:32:45.906Z,74.80
2023-05-18T00:35:12.790Z,74.30
2023-05-18T00:37:39.521Z,74.60
2023-05-18T00:40:07.055Z,74.80
2023-05-18T00:42:33.925Z,74.60
2023-05-18T00:45:01.177Z,74.70
2023-05-18T00:47:28.015Z,74.10
2023-05-18T00:49:54.927Z,74.40
2023-05-18T00:52:21.876Z,74.70
2023-05-18T00:54:49.328Z,74.90
2023-05-18T00:57:16.658Z,75.30
2023-05-18T00:59:43.904Z,75.50
2023-05-18T01:02:11.978Z,75.30
2023-05-18T01:04:41.309Z,75.50
2023-05-18T01:07:08.827Z,75.40
2023-05-18T01:09:35.794Z,75.70
2023-05-18T01:12:25.631Z,75.90
2023-05-18T01:15:04.405Z,75.90
2023-05-18T01:18:00.796Z,75.50
2023-05-18T01:20:34.036Z,75.50
2023-05-18T01:23:35.552Z,75.30
2023-05-18T01:26:16.098Z,75.10
2023-05-18T01:28:46.503Z,74.60
2023-05-18T01:31:16.258Z,74.80
2023-05-18T01:33:44.241Z,74.80
2023-05-18T01:36:11.394Z,74.80
2023-05-18T01:38:39.398Z,74.90
2023-05-18T01:41:14.756Z,74.90
2023-05-18T01:43:51.958Z,74.50
2023-05-18T01:46:24.761Z,74.30
2023-05-18T01:48:58.542Z,74.70
2023-05-18T01:51:31.373Z,75.00
2023-05-18T01:54:03.553Z,74.90
2023-05-18T01:56:31.977Z,75.10
2023-05-18T01:58:59.403Z,75.30
2023-05-18T02:01:26.301Z,75.80
2023-05-18T02:03:53.195Z,76.00
2023-05-18T02:06:21.018Z,76.30
2023-05-18T02:08:48.402Z,76.40
2023-05-18T02:11:15.270Z,76.70
2023-05-18T02:13:42.187Z,76.80
2023-05-18T02:16:09.153Z,77.10
2023-05-18T02:18:36.474Z,76.90
2023-05-18T02:21:05.012Z,77.00
2023-05-18T02:23:32.205Z,77.00
2023-05-18T02:25:59.001Z,77.40
2023-05-18T02:28:25.953Z,77.50
2023-05-18T02:30:52.708Z,77.70
2023-05-18T02:33:19.686Z,77.90
2023-05-18T02:35:46.576Z,78.00
2023-05-18T02:38:13.510Z,78.00
2023-05-18T02:40:40.248Z,78.20
2023-05-18T02:43:07.046Z,78.00
2023-05-18T02:45:34.195Z,78.10
2023-05-18T02:48:01.392Z,77.90
2023-05-18T02:50:28.689Z,77.90
2023-05-18T02:52:56.019Z,77.90
2023-05-18T02:55:22.937Z,77.90
2023-05-18T02:58:02.402Z,77.90
2023-05-18T03:00:49.268Z,78.40
2023-05-18T03:03:16.371Z,78.30
2023-05-18T03:05:44.913Z,78.30
2023-05-18T03:08:11.650Z,78.80
2023-05-18T03:10:38.467Z,79.10
2023-05-18T03:13:05.244Z,78.70
2023-05-18T03:15:32.590Z,79.00
2023-05-18T03:17:59.990Z,78.90
2023-05-18T03:20:28.013Z,79.00
2023-05-18T03:22:54.836Z,79.50
2023-05-18T03:25:22.538Z,79.20
2023-05-18T03:27:49.395Z,79.10
2023-05-18T03:30:16.852Z,78.80
2023-05-18T03:32:43.745Z,78.90
2023-05-18T03:35:11.108Z,78.70
2023-05-18T03:37:37.876Z,78.80
2023-05-18T03:40:13.882Z,79.20
2023-05-18T03:42:42.696Z,79.40
2023-05-18T03:45:10.627Z,79.10
2023-05-18T03:47:38.878Z,79.00
2023-05-18T03:50:07.158Z,79.10
2023-05-18T03:52:34.983Z,79.20
2023-05-18T03:55:01.971Z,79.20
2023-05-18T03:57:29.276Z,78.60
2023-05-18T03:59:56.623Z,78.50
2023-05-18T04:02:24.159Z,78.40
2023-05-18T04:04:53.910Z,78.20
2023-05-18T04:07:22.266Z,77.90
2023-05-18T04:09:49.333Z,76.60
2023-05-18T04:12:16.185Z,75.30
2023-05-18T04:14:43.000Z,76.40
2023-05-18T04:17:10.056Z,77.10
2023-05-18T04:19:37.980Z,77.60
2023-05-18T04:22:06.846Z,77.90
2023-05-18T04:24:34.865Z,78.00
2023-05-18T04:27:03.655Z,78.20
2023-05-18T04:29:31.269Z,78.40
2023-05-18T04:32:01.915Z,78.60
2023-05-18T04:34:29.602Z,78.60
2023-05-18T04:37:00.733Z,78.80
2023-05-18T04:39:27.632Z,79.00
2023-05-18T04:42:00.004Z,78.90
2023-05-18T04:44:29.033Z,79.00
2023-05-18T04:46:59.261Z,79.00
2023-05-18T04:49:27.921Z,78.70
2023-05-18T04:51:55.929Z,78.40
2023-05-18T04:54:28.169Z,78.20
2023-05-18T04:56:54.951Z,78.70
2023-05-18T04:59:26.130Z,78.70
2023-05-18T05:01:55.395Z,78.50
2023-05-18T05:04:23.874Z,78.30
2023-05-18T05:06:50.871Z,78.40
2023-05-18T05:09:18.011Z,77.80
2023-05-18T05:11:44.881Z,78.10
2023-05-18T05:14:12.213Z,78.10
2023-05-18T05:16:39.639Z,77.70
2023-05-18T05:19:06.739Z,77.70
2023-05-18T05:21:33.704Z,77.60
2023-05-18T05:24:04.962Z,76.90
2023-05-18T05:26:32.089Z,76.50
2023-05-18T05:28:58.795Z,76.20
2023-05-18T05:31:25.561Z,75.80
2023-05-18T05:33:52.344Z,75.50
2023-05-18T05:36:19.098Z,75.30
2023-05-18T05:38:45.862Z,75.70
2023-05-18T05:41:12.625Z,75.90
2023-05-18T05:43:39.475Z,75.90
2023-05-18T05:46:06.244Z,75.50
2023-05-18T05:48:33.273Z,75.40
2023-05-18T05:51:00.626Z,75.50
2023-05-18T05:53:29.673Z,75.20
2023-05-18T05:55:56.867Z,75.20
2023-05-18T05:58:23.713Z,75.40
2023-05-18T06:00:54.813Z,75.20
2023-05-18T06:03:21.985Z,75.40
2023-05-18T06:05:49.415Z,74.80
2023-05-18T06:08:18.328Z,75.50
2023-05-18T06:10:47.109Z,74.60
2023-05-18T06:13:13.961Z,74.00
2023-05-18T06:15:48.235Z,73.10
2023-05-18T06:18:15.113Z,73.30
2023-05-18T06:20:41.874Z,72.80
2023-05-18T06:23:08.705Z,72.20
2023-05-18T06:25:47.244Z,72.10
2023-05-18T06:28:28.551Z,71.70
2023-05-18T06:31:05.682Z,71.30
2023-05-18T06:33:42.372Z,71.30
2023-05-18T06:36:09.407Z,70.90
2023-05-18T06:38:36.165Z,70.70
2023-05-18T06:41:02.915Z,70.40
2023-05-18T06:43:29.731Z,70.30
2023-05-18T06:46:03.591Z,69.40
2023-05-18T06:48:36.170Z,69.80
2023-05-18T06:51:03.083Z,69.30
2023-05-18T06:53:31.767Z,69.20
2023-05-18T06:55:58.512Z,69.20
2023-05-18T06:58:25.376Z,69.40
2023-05-18T07:00:54.145Z,67.80
2023-05-18T07:03:20.929Z,67.50
2023-05-18T07:05:47.668Z,66.40
2023-05-18T07:08:14.516Z,66.90
2023-05-18T07:10:41.258Z,66.40
2023-05-18T07:13:07.991Z,65.80
2023-05-18T07:15:34.953Z,66.60
2023-05-18T07:18:01.943Z,65.30
2023-05-18T07:20:28.694Z,65.10
2023-05-18T07:22:55.922Z,63.80
2023-05-18T07:25:23.255Z,64.00
2023-05-18T07:27:52.108Z,64.30
2023-05-18T07:30:21.417Z,64.10
2023-05-18T07:32:48.483Z,62.80
2023-05-18T07:35:16.881Z,62.50
2023-05-18T07:37:43.657Z,61.30
2023-05-18T07:40:11.347Z,60.80
2023-05-18T07:42:39.516Z,61.30
2023-05-18T07:45:07.217Z,60.90
2023-05-18T07:47:34.124Z,61.60
2023-05-18T07:50:00.932Z,60.50
2023-05-18T07:52:27.645Z,60.40
2023-05-18T07:54:56.378Z,60.60
2023-05-18T07:57:23.608Z,59.30
2023-05-18T07:59:50.681Z,58.70
2023-05-18T08:02:19.680Z,59.10
2023-05-18T08:04:47.249Z,59.40
2023-05-18T08:07:14.375Z,58.70
2023-05-18T08:09:41.310Z,58.80
2023-05-18T08:12:08.324Z,57.50
2023-05-18T08:14:35.039Z,57.30
2023-05-18T08:17:04.697Z,57.00
2023-05-18T08:19:31.632Z,56.70
2023-05-18T08:21:58.423Z,57.70
2023-05-18T08:24:25.162Z,57.30
2023-05-18T08:26:52.537Z,57.60
2023-05-18T08:29:19.339Z,58.30
2023-05-18T08:31:48.460Z,57.00
2023-05-18T08:34:16.697Z,57.10
2023-05-18T08:36:45.607Z,57.00
2023-05-18T08:39:12.859Z,56.70
2023-05-18T08:41:53.915Z,55.20
2023-05-18T08:44:35.030Z,54.00
2023-05-18T08:47:03.663Z,54.10
2023-05-18T08:49:32.126Z,54.20
2023-05-18T08:52:04.014Z,53.40
2023-05-18T08:54:31.536Z,54.40
2023-05-18T08:56:59.176Z,52.20
2023-05-18T08:59:31.066Z,53.90
2023-05-18T09:01:58.879Z,54.10
2023-05-18T09:04:27.200Z,53.60
2023-05-18T09:06:56.498Z,53.10
2023-05-18T09:09:25.311Z,53.60
2023-05-18T09:11:52.259Z,53.80
2023-05-18T09:14:19.149Z,55.00
2023-05-18T09:16:45.946Z,55.00
2023-05-18T09:19:12.783Z,53.50
2023-05-18T09:21:39.520Z,54.60
2023-05-18T09:24:06.563Z,55.30
2023-05-18T09:26:33.627Z,54.30
2023-05-18T09:29:00.506Z,54.50
2023-05-18T09:31:30.269Z,52.70
2023-05-18T09:33:59.340Z,52.60
2023-05-18T09:36:26.690Z,52.80
2023-05-18T09:38:53.745Z,53.40
2023-05-18T09:41:20.477Z,54.10
2023-05-18T09:43:54.243Z,50.80
2023-05-18T09:46:22.037Z,50.00
2023-05-18T09:48:55.796Z,51.50
2023-05-18T09:51:25.550Z,52.10
2023-05-18T09:53:57.200Z,52.20
2023-05-18T09:56:25.630Z,52.10
2023-05-18T09:58:55.789Z,51.70
2023-05-18T10:01:23.179Z,51.30
2023-05-18T10:03:50.292Z,50.90
2023-05-18T10:06:21.345Z,50.10
2023-05-18T10:08:48.622Z,50.00
2023-05-18T10:11:19.612Z,49.50
2023-05-18T10:13:46.920Z,49.70
2023-05-18T10:16:15.829Z,49.40
2023-05-18T10:18:43.380Z,49.00
2023-05-18T10:21:12.668Z,49.90
2023-05-18T10:23:40.857Z,50.10
2023-05-18T10:26:09.849Z,48.30
2023-05-18T10:28:47.331Z,49.20
2023-05-18T10:31:16.421Z,48.90
2023-05-18T10:33:44.265Z,48.60
2023-05-18T10:36:11.491Z,49.80
2023-05-18T10:38:43.483Z,49.30
2023-05-18T10:41:12.193Z,49.50
2023-05-18T10:43:41.562Z,50.50
2023-05-18T10:46:09.304Z,51.00
2023-05-18T10:48:40.059Z,51.60
2023-05-18T10:51:07.977Z,51.00
2023-05-18T10:53:36.373Z,51.90
2023-05-18T10:56:03.384Z,52.50
2023-05-18T10:58:31.866Z,52.60
2023-05-18T11:01:01.201Z,52.70
2023-05-18T11:03:28.790Z,52.40
2023-05-18T11:06:23.207Z,52.50
2023-05-18T11:08:52.076Z,52.20
2023-05-18T11:11:25.810Z,53.10
2023-05-18T11:13:52.622Z,53.70
2023-05-18T11:16:20.596Z,54.20
2023-05-18T11:18:52.402Z,54.60
2023-05-18T11:21:25.395Z,54.30
2023-05-18T11:24:19.967Z,54.50
2023-05-18T11:26:48.648Z,54.60
2023-05-18T11:29:34.159Z,54.00
2023-05-18T11:32:01.682Z,54.50
2023-05-18T11:34:39.154Z,54.20
2023-05-18T11:37:10.213Z,53.90
2023-05-18T11:39:44.886Z,53.80
2023-05-18T11:42:19.268Z,54.80
2023-05-18T11:44:57.913Z,55.00
2023-05-18T11:47:31.430Z,53.60
2023-05-18T11:49:58.998Z,53.10
2023-05-18T11:52:25.976Z,53.60
2023-05-18T11:55:00.415Z,53.30
2023-05-18T11:57:40.468Z,52.40
2023-05-18T12:00:11.981Z,52.40
2023-05-18T12:02:47.197Z,52.70
2023-05-18T12:05:15.170Z,52.30
2023-05-18T12:07:42.388Z,52.00
2023-05-18T12:10:14.566Z,52.00
2023-05-18T12:12:41.576Z,51.80
2023-05-18T12:15:10.292Z,52.40
2023-05-18T12:17:45.069Z,52.50
2023-05-18T12:20:13.014Z,52.60
2023-05-18T12:22:41.187Z,52.50
2023-05-18T12:25:08.835Z,51.50
2023-05-18T12:27:46.026Z,52.10
2023-05-18T12:30:34.688Z,51.50
2023-05-18T12:33:03.146Z,51.90
2023-05-18T12:35:31.367Z,53.20
2023-05-18T12:38:02.426Z,52.60
2023-05-18T12:40:44.795Z,53.20
2023-05-18T12:43:12.927Z,53.00
2023-05-18T12:45:40.905Z,53.20
2023-05-18T12:48:09.552Z,53.10
2023-05-18T12:50:38.686Z,52.40
2023-05-18T12:53:05.581Z,53.20
2023-05-18T12:55:33.172Z,53.50
2023-05-18T12:58:12.820Z,53.80
2023-05-18T13:00:42.503Z,53.80
2023-05-18T13:03:14.465Z,53.40
2023-05-18T13:05:44.658Z,53.80
2023-05-18T13:08:17.818Z,53.30
2023-05-18T13:10:45.198Z,54.00
2023-05-18T13:13:15.701Z,54.30
2023-05-18T13:15:43.864Z,54.60
2023-05-18T13:18:12.037Z,54.50
2023-05-18T13:20:51.407Z,54.10
2023-05-18T13:23:23.944Z,54.00
2023-05-18T13:25:51.104Z,54.90
2023-05-18T13:28:21.009Z,54.10
2023-05-18T13:30:49.362Z,55.20
2023-05-18T13:33:19.295Z,54.60
2023-05-18T13:35:48.522Z,54.60
2023-05-18T13:38:15.871Z,54.40
2023-05-18T13:40:42.974Z,54.80
2023-05-18T13:43:12.046Z,54.80
2023-05-18T13:45:40.955Z,54.80
2023-05-18T13:48:10.131Z,54.50
2023-05-18T13:50:37.708Z,55.00
2023-05-18T13:53:04.639Z,55.30
2023-05-18T13:55:31.828Z,55.40
2023-05-18T13:57:58.826Z,55.60
2023-05-18T14:00:26.227Z,55.30
2023-05-18T14:02:56.481Z,56.20
2023-05-18T14:05:23.635Z,56.90
2023-05-18T14:07:52.426Z,55.70
2023-05-18T14:10:19.461Z,56.00
2023-05-18T14:12:46.289Z,55.50
2023-05-18T14:15:13.963Z,55.80
2023-05-18T14:17:42.020Z,56.00
2023-05-18T14:20:09.655Z,56.10
2023-05-18T14:22:36.520Z,56.50
2023-05-18T14:25:03.639Z,56.60
2023-05-18T14:27:30.416Z,55.80
2023-05-18T14:29:57.284Z,56.00
2023-05-18T14:32:24.101Z,56.70
2023-05-18T14:34:52.098Z,56.50
2023-05-18T14:37:19.204Z,55.40
2023-05-18T14:39:46.162Z,55.60
2023-05-18T14:42:13.273Z,55.70
2023-05-18T14:44:40.013Z,55.30
2023-05-18T14:47:07.043Z,56.10
2023-05-18T14:49:33.936Z,56.10
2023-05-18T14:52:00.864Z,56.30
2023-05-18T14:54:27.621Z,55.80
2023-05-18T14:56:54.692Z,55.30
2023-05-18T14:59:21.903Z,55.10
2023-05-18T15:01:48.751Z,55.90
2023-05-18T15:04:15.572Z,56.00
2023-05-18T15:06:42.433Z,56.10
2023-05-18T15:09:09.972Z,56.30
2023-05-18T15:11:36.752Z,56.80
2023-05-18T15:14:03.510Z,56.80
2023-05-18T15:16:30.315Z,56.20
2023-05-18T15:18:57.253Z,56.90
2023-05-18T15:21:24.041Z,56.30
2023-05-18T15:23:50.910Z,56.70
2023-05-18T15:26:17.695Z,56.60
2023-05-18T15:28:45.048Z,57.40
2023-05-18T15:31:12.022Z,57.30
2023-05-18T15:33:42.310Z,57.80
2023-05-18T15:36:09.796Z,58.00
2023-05-18T15:38:36.586Z,57.70
2023-05-18T15:41:03.526Z,58.10
2023-05-18T15:43:30.675Z,58.40
2023-05-18T15:45:58.219Z,58.50
2023-05-18T15:48:25.058Z,58.80
2023-05-18T15:50:51.902Z,58.50
2023-05-18T15:53:18.723Z,58.60
2023-05-18T15:55:45.664Z,59.30
2023-05-18T15:58:16.094Z,59.70
2023-05-18T16:00:42.942Z,59.30
2023-05-18T16:03:09.753Z,59.50
2023-05-18T16:05:36.730Z,59.50
2023-05-18T16:08:03.530Z,60.30
2023-05-18T16:10:30.657Z,60.30
2023-05-18T16:13:04.216Z,59.60
2023-05-18T16:15:32.420Z,59.50
2023-05-18T16:17:59.186Z,60.00
2023-05-18T16:20:26.051Z,60.30
2023-05-18T16:22:52.859Z,60.20
2023-05-18T16:25:19.603Z,60.60
2023-05-18T16:27:46.362Z,61.00
2023-05-18T16:30:13.335Z,60.60
2023-05-18T16:32:40.082Z,60.80
2023-05-18T16:35:07.088Z,61.00
2023-05-18T16:37:34.705Z,61.50
2023-05-18T16:40:01.503Z,62.00
2023-05-18T16:42:28.337Z,61.20
2023-05-18T16:44:55.594Z,61.20
2023-05-18T16:47:22.911Z,61.10
2023-05-18T16:49:49.672Z,61.30
2023-05-18T16:52:18.301Z,61.30
2023-05-18T16:54:45.612Z,61.80
2023-05-18T16:57:13.200Z,62.10
2023-05-18T16:59:40.549Z,62.20
2023-05-18T17:02:12.991Z,61.90
2023-05-18T17:04:45.998Z,62.50
2023-05-18T17:07:13.240Z,61.80
2023-05-18T17:09:41.696Z,62.30
2023-05-18T17:12:12.529Z,62.30
2023-05-18T17:14:39.765Z,62.40
2023-05-18T17:17:07.561Z,62.60
2023-05-18T17:19:38.838Z,62.60
2023-05-18T17:22:06.229Z,62.80
2023-05-18T17:24:32.952Z,62.80
2023-05-18T17:26:59.705Z,63.00
2023-05-18T17:29:27.138Z,63.50
2023-05-18T17:31:54.088Z,63.90
2023-05-18T17:34:21.074Z,63.90
2023-05-18T17:36:47.908Z,64.00
2023-05-18T17:39:18.028Z,64.20
2023-05-18T17:41:45.016Z,64.20
2023-05-18T17:44:13.926Z,64.20
2023-05-18T17:46:41.603Z,64.40
2023-05-18T17:49:08.734Z,64.60
2023-05-18T17:51:35.505Z,64.20
2023-05-18T17:54:02.249Z,64.50
2023-05-18T17:56:30.490Z,64.90
2023-05-18T17:58:58.955Z,65.00
2023-05-18T18:01:27.018Z,64.90
2023-05-18T18:03:54.206Z,65.20
2023-05-18T18:06:22.775Z,65.80
2023-05-18T18:08:50.793Z,65.40
2023-05-18T18:11:17.917Z,65.50
2023-05-18T18:13:44.670Z,65.90
2023-05-18T18:16:11.691Z,65.80
2023-05-18T18:18:55.519Z,66.20
2023-05-18T18:21:22.372Z,66.10
2023-05-18T18:23:49.190Z,66.10
2023-05-18T18:26:16.958Z,66.40
2023-05-18T18:28:43.813Z,66.70
2023-05-18T18:31:10.655Z,66.80
2023-05-18T18:33:38.440Z,67.00
2023-05-18T18:36:07.291Z,67.20
2023-05-18T18:38:34.124Z,67.50
2023-05-18T18:41:04.263Z,67.40
2023-05-18T18:43:31.412Z,67.40
2023-05-18T18:45:58.583Z,67.40
2023-05-18T18:48:26.138Z,67.50
2023-05-18T18:50:53.398Z,67.70
2023-05-18T18:53:20.186Z,67.90
2023-05-18T18:55:47.190Z,68.00
2023-05-18T18:58:13.993Z,68.40
2023-05-18T19:00:40.818Z,68.30
2023-05-18T19:03:09.700Z,68.40
2023-05-18T19:05:37.348Z,68.50
2023-05-18T19:08:04.243Z,68.40
2023-05-18T19:10:32.824Z,68.50
2023-05-18T19:13:04.860Z,68.80
2023-05-18T19:15:33.573Z,68.80
2023-05-18T19:18:00.924Z,68.90
2023-05-18T19:20:27.830Z,69.00
2023-05-18T19:22:54.643Z,69.00
2023-05-18T19:25:24.530Z,68.90
2023-05-18T19:27:52.222Z,69.20
2023-05-18T19:30:21.518Z,69.30
2023-05-18T19:32:52.991Z,69.30
2023-05-18T19:35:20.944Z,69.40
2023-05-18T19:37:48.004Z,69.60
2023-05-18T19:40:16.436Z,69.70
2023-05-18T19:42:43.360Z,69.70
2023-05-18T19:45:10.208Z,69.60
2023-05-18T19:47:37.072Z,69.90
2023-05-18T19:50:04.481Z,69.80
2023-05-18T19:52:32.127Z,69.80
2023-05-18T19:54:58.838Z,70.10
2023-05-18T19:57:26.438Z,70.00
2023-05-18T19:59:53.486Z,70.20
2023-05-18T20:02:20.241Z,70.20
2023-05-18T20:04:48.314Z,70.40
2023-05-18T20:07:15.173Z,70.60
2023-05-18T20:09:41.890Z,70.60
2023-05-18T20:12:08.833Z,70.40
2023-05-18T20:14:36.653Z,70.60
2023-05-18T20:17:04.321Z,70.30
2023-05-18T20:19:32.866Z,70.30
2023-05-18T20:21:59.850Z,70.10
2023-05-18T20:24:26.649Z,70.10
2023-05-18T20:26:53.570Z,70.00
2023-05-18T20:29:21.355Z,70.10
2023-05-18T20:31:48.380Z,70.10
2023-05-18T20:34:15.575Z,70.00
2023-05-18T20:36:42.298Z,70.10
2023-05-18T20:39:09.149Z,70.40
2023-05-18T20:41:39.952Z,70.10
2023-05-18T20:44:07.385Z,70.40
2023-05-18T20:46:34.313Z,70.30
2023-05-18T20:49:01.141Z,69.90
2023-05-18T20:51:28.071Z,70.20
2023-05-18T20:53:54.910Z,70.10
2023-05-18T20:56:21.923Z,70.30
2023-05-18T20:58:50.049Z,70.40
2023-05-18T21:01:17.027Z,70.60
2023-05-18T21:03:45.164Z,70.70
2023-05-18T21:06:15.057Z,70.80
2023-05-18T21:08:42.429Z,70.70
2023-05-18T21:11:09.654Z,71.10
2023-05-18T21:13:37.004Z,71.20
2023-05-18T21:16:06.666Z,71.50
2023-05-18T21:18:34.407Z,71.60
2023-05-18T21:21:02.270Z,71.80
2023-05-18T21:23:29.223Z,71.70
2023-05-18T21:25:57.386Z,71.70
2023-05-18T21:28:24.991Z,71.50
2023-05-18T21:30:52.696Z,71.50
2023-05-18T21:33:19.716Z,71.50
2023-05-18T21:35:46.667Z,71.80
2023-05-18T21:38:13.424Z,71.40
2023-05-18T21:40:43.579Z,71.90
2023-05-18T21:43:10.823Z,71.90
2023-05-18T21:45:37.964Z,71.70
2023-05-18T21:48:05.224Z,72.10
2023-05-18T21:50:34.644Z,71.90
2023-05-18T21:53:03.192Z,71.90
2023-05-18T21:55:33.305Z,71.80
2023-05-18T21:58:00.232Z,72.20
2023-05-18T22:00:27.980Z,72.30
2023-05-18T22:02:54.761Z,72.40
2023-05-18T22:05:21.646Z,72.60
2023-05-18T22:07:48.890Z,72.40
2023-05-18T22:10:17.697Z,72.50
2023-05-18T22:12:44.501Z,72.60
2023-05-18T22:15:11.551Z,72.40
2023-05-18T22:17:39.047Z,72.30
2023-05-18T22:20:09.744Z,72.50
2023-05-18T22:22:36.696Z,72.40
2023-05-18T22:25:03.560Z,72.70
2023-05-18T22:27:30.470Z,72.60
2023-05-18T22:29:57.453Z,72.70
2023-05-18T22:32:24.686Z,72.70
2023-05-18T22:34:51.890Z,72.50
2023-05-18T22:37:18.646Z,72.50
2023-05-18T22:39:45.505Z,72.50
2023-05-18T22:42:12.300Z,72.50
2023-05-18T22:44:39.048Z,72.50
2023-05-18T22:47:06.126Z,72.50
2023-05-18T22:49:35.624Z,72.50
2023-05-18T22:52:04.230Z,72.20
2023-05-18T22:54:31.442Z,72.40
2023-05-18T22:56:59.462Z,70.90
2023-05-18T22:59:26.712Z,72.00
2023-05-18T23:01:54.592Z,72.30
2023-05-18T23:04:21.805Z,72.70
2023-05-18T23:06:49.284Z,72.80
2023-05-18T23:09:17.001Z,73.00
2023-05-18T23:11:48.270Z,72.80
2023-05-18T23:14:15.191Z,73.10
2023-05-18T23:16:42.958Z,73.20
2023-05-18T23:19:12.214Z,73.30
2023-05-18T23:21:42.368Z,73.40
2023-05-18T23:24:11.678Z,73.50
2023-05-18T23:26:42.118Z,73.40
2023-05-18T23:29:09.246Z,73.30
2023-05-18T23:31:36.312Z,73.10
2023-05-18T23:34:03.558Z,73.30
2023-05-18T23:36:34.852Z,73.30
2023-05-18T23:39:01.884Z,73.40
2023-05-18T23:41:30.412Z,73.30
2023-05-18T23:43:57.724Z,73.30
2023-05-18T23:46:25.055Z,73.30
2023-05-18T23:48:52.458Z,73.40
2023-05-18T23:51:20.708Z,73.20
2023-05-18T23:53:50.599Z,73.40
2023-05-18T23:56:17.735Z,73.10
2023-05-18T23:58:46.479Z,73.40
